Time;durP1;ratioP1;P1;durP2;ratioP2;P2;SDS_P1;SDS_P2;PMS_P1;PMS_P2;Temp;Humidity;BMP_temperature;BMP_pressure;BME280_temperature;BME280_humidity;BME280_pressure;Samples;Min_cycle;Max_cycle;Signal;HPM_P1;HPM_P2
2021/06/18 00:01:24;;;;;;;3.92;2.60;;;;;;;18.84;100.00;100037.19;1790240;80;21223;-77
2021/06/18 00:04:30;;;;;;;4.12;2.47;;;;;;;18.83;100.00;100027.73;1789480;80;21168;-77
2021/06/18 00:07:35;;;;;;;6.17;2.87;;;;;;;18.82;100.00;100024.13;1788675;80;21184;-77
2021/06/18 00:10:41;;;;;;;6.90;2.45;;;;;;;18.84;100.00;100015.56;1788754;80;21267;-78
2021/06/18 00:13:46;;;;;;;4.60;2.87;;;;;;;18.86;100.00;100015.61;1753859;82;21214;-77
2021/06/18 00:16:53;;;;;;;3.45;2.40;;;;;;;18.89;100.00;100014.30;1751909;81;21196;-77
2021/06/18 00:19:58;;;;;;;2.95;2.20;;;;;;;18.89;100.00;100020.69;1752056;82;21182;-77
2021/06/18 00:23:04;;;;;;;4.87;2.20;;;;;;;18.90;100.00;100024.30;1753448;82;21201;-77
2021/06/18 00:26:09;;;;;;;3.87;2.30;;;;;;;18.90;100.00;100014.05;1752825;82;21348;-77
2021/06/18 00:29:15;;;;;;;3.83;2.37;;;;;;;18.93;100.00;100018.29;1752730;82;21376;-77
2021/06/18 00:32:20;;;;;;;9.03;2.37;;;;;;;18.88;100.00;100010.69;1753276;82;21201;-77
2021/06/18 00:35:26;;;;;;;4.20;2.52;;;;;;;18.85;100.00;100007.55;1752331;82;21293;-77
2021/06/18 00:38:33;;;;;;;4.58;2.83;;;;;;;18.81;100.00;100000.78;1753332;82;21844;-77
2021/06/18 00:41:39;;;;;;;3.15;2.47;;;;;;;18.76;100.00;100002.05;1752745;82;21400;-77
2021/06/18 00:44:45;;;;;;;2.30;2.10;;;;;;;18.74;100.00;100000.06;1753750;82;21269;-77
2021/06/18 00:48:08;;;;;;;5.03;2.10;;;;;;;18.72;100.00;100006.36;1753269;82;21830;-78
2021/06/18 00:51:13;;;;;;;5.50;2.62;;;;;;;18.66;100.00;100002.59;1753383;82;21829;-77
2021/06/18 00:54:31;;;;;;;5.28;2.90;;;;;;;18.59;100.00;100006.86;1753073;82;21273;-77
2021/06/18 00:57:29;;;;;;;5.83;2.80;;;;;;;18.59;100.00;100008.79;1752108;82;21882;-78
2021/06/18 01:00:35;;;;;;;5.53;3.90;;;;;;;18.57;100.00;100022.01;1753383;82;21312;-78
2021/06/18 01:03:41;;;;;;;8.08;5.78;;;;;;;18.55;100.00;100020.88;1753394;82;21214;-77
2021/06/18 01:06:47;;;;;;;10.03;5.83;;;;;;;18.56;100.00;100028.09;1753378;82;21296;-77
2021/06/18 01:10:36;;;;;;;15.60;7.97;;;;;;;18.54;100.00;100026.11;1753466;82;21194;-77
2021/06/18 01:14:00;;;;;;;12.80;8.65;;;;;;;18.52;100.00;100021.33;1780586;79;21250;-77
2021/06/18 01:17:41;;;;;;;16.20;11.68;;;;;;;18.51;100.00;100024.34;1790465;80;21202;-77
2021/06/18 01:21:19;;;;;;;21.52;13.15;;;;;;;18.47;100.00;100027.27;1789137;80;21342;-77
2021/06/18 01:24:59;;;;;;;23.65;14.75;;;;;;;18.44;100.00;100036.05;1790805;80;21307;-77
2021/06/18 01:28:31;;;;;;;22.80;14.50;;;;;;;18.39;100.00;100039.52;1777685;80;21312;-76
2021/06/18 01:31:49;;;;;;;25.60;12.78;;;;;;;18.39;100.00;100038.13;1789370;80;21191;-77
2021/06/18 01:34:55;;;;;;;19.73;11.55;;;;;;;18.38;100.00;100024.83;1790503;80;21766;-77
2021/06/18 01:38:05;;;;;;;21.82;9.38;;;;;;;18.36;100.00;100029.77;1790640;80;21302;-77
2021/06/18 01:41:13;;;;;;;16.85;8.40;;;;;;;18.35;100.00;100035.55;1790818;80;21301;-77
2021/06/18 01:44:18;;;;;;;17.20;8.10;;;;;;;18.32;100.00;100034.08;1791763;80;21259;-77
2021/06/18 01:47:23;;;;;;;19.05;8.73;;;;;;;18.30;100.00;100028.45;1791092;80;21184;-77
2021/06/18 01:50:29;;;;;;;17.65;8.73;;;;;;;18.26;100.00;100036.95;1790817;80;21283;-78
2021/06/18 01:53:34;;;;;;;15.98;9.23;;;;;;;18.22;100.00;100044.02;1791024;80;21303;-77
2021/06/18 01:56:43;;;;;;;26.33;11.78;;;;;;;18.18;100.00;100058.02;1789461;80;21338;-77
2021/06/18 01:59:48;;;;;;;27.17;12.55;;;;;;;18.16;100.00;100062.92;1791165;80;21310;-77
2021/06/18 02:02:56;;;;;;;32.17;15.70;;;;;;;18.19;100.00;100068.01;1789373;80;21192;-77
2021/06/18 02:06:06;;;;;;;39.38;15.32;;;;;;;18.22;100.00;100076.70;1789394;80;21170;-77
2021/06/18 02:09:13;;;;;;;40.38;21.02;;;;;;;18.29;100.00;100082.14;1790823;80;21295;-77
2021/06/18 02:12:18;;;;;;;59.35;27.93;;;;;;;18.38;100.00;100097.36;1791749;80;21291;-77
2021/06/18 02:15:24;;;;;;;55.30;26.40;;;;;;;18.44;100.00;100099.19;1791701;79;21248;-76
2021/06/18 02:18:31;;;;;;;87.15;35.10;;;;;;;18.49;100.00;100109.05;1793772;80;21292;-77
2021/06/18 02:21:36;;;;;;;74.60;34.60;;;;;;;18.47;100.00;100118.12;1793716;80;21292;-77
2021/06/18 02:24:42;;;;;;;64.30;27.25;;;;;;;18.45;100.00;100117.52;1793880;80;21193;-77
2021/06/18 02:27:47;;;;;;;49.10;23.18;;;;;;;18.42;100.00;100122.67;1793445;80;21324;-78
2021/06/18 02:30:52;;;;;;;58.83;25.43;;;;;;;18.38;100.00;100127.81;1793866;80;21174;-77
2021/06/18 02:34:00;;;;;;;55.17;27.95;;;;;;;18.34;100.00;100137.12;1792387;80;21174;-77
2021/06/18 02:37:06;;;;;;;49.75;23.10;;;;;;;18.28;100.00;100138.05;1792284;80;21339;-77
2021/06/18 02:40:13;;;;;;;61.77;31.62;;;;;;;18.24;100.00;100142.90;1793715;80;21840;-78
2021/06/18 02:43:19;;;;;;;54.55;26.62;;;;;;;18.20;100.00;100147.20;1794600;80;21312;-77
2021/06/18 02:46:44;;;;;;;57.48;27.05;;;;;;;18.23;100.00;100149.52;1792393;80;21166;-77
2021/06/18 02:50:08;;;;;;;39.65;18.30;;;;;;;18.25;100.00;100151.50;1764062;80;21350;-77
2021/06/18 02:53:38;;;;;;;28.17;15.65;;;;;;;18.29;100.00;100154.12;1723483;80;21529;-77
2021/06/18 02:57:02;;;;;;;28.32;14.05;;;;;;;18.30;100.00;100155.80;1793433;80;21331;-77
2021/06/18 03:00:14;;;;;;;32.98;15.78;;;;;;;18.30;100.00;100159.95;1794128;80;21846;-77
2021/06/18 03:03:20;;;;;;;24.87;13.65;;;;;;;18.33;100.00;100158.13;1794022;80;21304;-77
2021/06/18 03:06:25;;;;;;;26.37;12.20;;;;;;;18.34;100.00;100157.04;1793396;80;21241;-77
2021/06/18 03:09:39;;;;;;;15.30;8.88;;;;;;;18.34;100.00;100153.73;1793829;80;22600;-77
2021/06/18 03:12:49;;;;;;;16.27;7.05;;;;;;;18.36;100.00;100157.67;1772489;80;21331;-77
2021/06/18 03:15:54;;;;;;;19.98;7.62;;;;;;;18.35;100.00;100154.61;1784974;80;21855;-77
2021/06/18 03:18:59;;;;;;;11.10;5.10;;;;;;;18.36;100.00;100164.59;1749474;82;21306;-77
2021/06/18 03:22:08;;;;;;;12.05;5.62;;;;;;;18.38;100.00;100163.27;1785247;80;21181;-77
2021/06/18 03:25:14;;;;;;;9.15;5.05;;;;;;;18.42;100.00;100163.66;1782377;80;21482;-77
2021/06/18 03:28:19;;;;;;;9.10;4.95;;;;;;;18.41;100.00;100166.13;1785099;79;21293;-77
2021/06/18 03:31:27;;;;;;;8.38;5.00;;;;;;;18.44;100.00;100164.80;1782399;80;21346;-77
2021/06/18 03:34:32;;;;;;;16.90;5.70;;;;;;;18.44;100.00;100167.03;1783576;80;22550;-77
2021/06/18 03:37:38;;;;;;;10.25;4.65;;;;;;;18.46;100.00;100164.90;1780741;80;21208;-77
2021/06/18 03:40:44;;;;;;;10.68;3.90;;;;;;;18.62;100.00;100159.25;1784924;80;21299;-77
2021/06/18 03:43:49;;;;;;;14.38;5.75;;;;;;;18.94;100.00;100166.02;1784844;80;21212;-77
2021/06/18 03:46:55;;;;;;;21.40;11.10;;;;;;;19.25;100.00;100165.77;1782542;80;21279;-77
2021/06/18 03:50:00;;;;;;;19.65;8.65;;;;;;;19.37;100.00;100165.79;1784113;80;21144;-77
2021/06/18 03:53:08;;;;;;;31.77;12.65;;;;;;;19.46;100.00;100165.75;1783131;80;21290;-77
2021/06/18 03:56:13;;;;;;;23.95;10.95;;;;;;;19.41;100.00;100167.01;1784642;80;21295;-77
2021/06/18 03:59:19;;;;;;;23.95;11.12;;;;;;;19.34;100.00;100164.90;1816665;79;21204;-77
2021/06/18 04:02:25;;;;;;;24.37;11.80;;;;;;;19.24;100.00;100164.59;1685405;80;21323;-77
2021/06/18 04:05:32;;;;;;;18.35;9.05;;;;;;;19.13;100.00;100171.27;1808502;79;21814;-77
2021/06/18 04:08:39;;;;;;;26.25;9.65;;;;;;;19.03;100.00;100179.85;1803890;79;21283;-78
2021/06/18 04:11:45;;;;;;;21.65;9.65;;;;;;;19.04;100.00;100186.53;1781636;80;21339;-77
2021/06/18 04:14:52;;;;;;;19.45;8.48;;;;;;;19.09;100.00;100188.60;1801908;79;21203;-77
2021/06/18 04:17:58;;;;;;;30.68;16.17;;;;;;;19.19;100.00;100189.42;1799687;79;21299;-76
2021/06/18 04:21:03;;;;;;;43.25;19.30;;;;;;;19.39;100.00;100186.67;1810531;79;21322;-77
2021/06/18 04:24:09;;;;;;;50.88;20.48;;;;;;;19.69;100.00;100194.66;1808335;79;21802;-78
2021/06/18 04:27:15;;;;;;;37.70;18.40;;;;;;;19.95;100.00;100197.50;1802329;79;21330;-77
2021/06/18 04:30:22;;;;;;;34.98;17.17;;;;;;;20.06;98.13;100200.84;1810958;79;21184;-78
2021/06/18 04:33:27;;;;;;;43.13;19.12;;;;;;;20.10;96.58;100207.06;1743577;80;21331;-77
2021/06/18 04:36:33;;;;;;;44.67;20.35;;;;;;;20.17;96.30;100209.16;1809852;79;22518;-77
2021/06/18 04:39:38;;;;;;;35.20;15.63;;;;;;;20.28;96.18;100211.66;1793808;79;21271;-77
2021/06/18 04:42:43;;;;;;;22.30;10.13;;;;;;;20.43;95.63;100211.16;1810039;79;21255;-78
2021/06/18 04:45:50;;;;;;;14.07;6.40;;;;;;;20.61;94.51;100213.81;1815345;79;21334;-77
2021/06/18 04:48:55;;;;;;;15.95;6.30;;;;;;;20.75;92.01;100217.69;1798460;79;21298;-77
2021/06/18 04:52:01;;;;;;;14.23;5.25;;;;;;;20.86;91.34;100222.39;1793891;79;21267;-78
2021/06/18 04:55:09;;;;;;;10.13;2.87;;;;;;;20.91;90.11;100222.49;1782911;79;21334;-78
2021/06/18 04:58:13;;;;;;;6.95;2.10;;;;;;;20.98;88.25;100232.91;1779675;80;21369;-77
2021/06/18 05:01:19;;;;;;;8.40;2.17;;;;;;;20.98;86.63;100239.86;1778084;80;21798;-78
2021/06/18 05:04:26;;;;;;;8.65;2.27;;;;;;;20.90;85.95;100237.48;1778117;80;21180;-78
2021/06/18 05:07:31;;;;;;;8.85;1.95;;;;;;;20.79;86.66;100251.69;1775237;79;21290;-77
2021/06/18 05:10:37;;;;;;;11.83;2.35;;;;;;;20.77;87.65;100245.55;1772294;80;21329;-78
2021/06/18 05:13:43;;;;;;;5.42;2.17;;;;;;;20.96;88.69;100240.67;1777627;80;21313;-78
2021/06/18 05:16:49;;;;;;;3.98;1.80;;;;;;;21.33;87.90;100246.73;1778692;78;21762;-77
2021/06/18 05:19:54;;;;;;;5.70;1.98;;;;;;;21.56;85.52;100242.99;1777844;80;21688;-78
2021/06/18 05:23:00;;;;;;;11.65;2.12;;;;;;;21.53;83.24;100247.66;1775686;80;21945;-78
2021/06/18 05:26:07;;;;;;;8.00;2.50;;;;;;;21.49;83.05;100254.81;1776302;80;21290;-77
2021/06/18 05:29:13;;;;;;;2.15;1.75;;;;;;;21.48;83.37;100247.56;1778543;80;21184;-77
2021/06/18 05:32:18;;;;;;;5.53;2.45;;;;;;;21.50;83.50;100242.61;1767409;80;21278;-77
2021/06/18 05:35:31;;;;;;;3.92;1.92;;;;;;;21.52;83.54;100246.52;1774980;78;21326;-77
2021/06/18 05:38:37;;;;;;;4.03;1.60;;;;;;;21.59;82.48;100245.25;1775976;78;21293;-79
2021/06/18 05:41:42;;;;;;;5.97;1.95;;;;;;;21.77;82.67;100252.54;1774291;78;21274;-78
2021/06/18 05:44:48;;;;;;;7.83;1.70;;;;;;;21.94;81.12;100260.92;1772231;78;21314;-78
2021/06/18 05:47:53;;;;;;;2.83;1.40;;;;;;;22.04;78.84;100256.06;1773300;78;21305;-78
2021/06/18 05:51:01;;;;;;;7.40;1.70;;;;;;;22.06;79.01;100266.39;1773655;78;21828;-78
2021/06/18 05:54:06;;;;;;;6.22;1.52;;;;;;;22.10;79.59;100273.15;1773091;78;21310;-81
2021/06/18 05:57:11;;;;;;;3.25;1.60;;;;;;;22.17;77.74;100283.06;1771342;79;21278;-77
2021/06/18 06:00:17;;;;;;;8.63;1.50;;;;;;;22.16;78.63;100284.69;1771812;80;21944;-79
2021/06/18 06:03:24;;;;;;;5.62;1.65;;;;;;;22.20;77.61;100283.94;1773282;78;21302;-79
2021/06/18 06:06:30;;;;;;;4.45;1.80;;;;;;;22.26;76.38;100291.01;1774236;78;21275;-78
2021/06/18 06:09:35;;;;;;;3.05;1.47;;;;;;;22.29;76.15;100297.45;1773645;78;21360;-78
2021/06/18 06:12:42;;;;;;;4.53;1.42;;;;;;;22.31;76.71;100299.45;1772443;78;21144;-78
2021/06/18 06:15:49;;;;;;;3.08;1.90;;;;;;;22.39;77.37;100298.45;1771816;78;21210;-78
2021/06/18 06:18:55;;;;;;;4.33;1.67;;;;;;;22.59;76.10;100297.10;1772927;78;21279;-78
2021/06/18 06:22:02;;;;;;;3.25;1.42;;;;;;;22.74;75.33;100309.86;1771282;78;21267;-77
2021/06/18 06:25:07;;;;;;;3.80;1.77;;;;;;;22.64;74.02;100312.50;1774313;80;21881;-78
2021/06/18 06:28:16;;;;;;;2.90;1.27;;;;;;;22.67;76.38;100317.55;1771058;78;21897;-78
2021/06/18 06:31:23;;;;;;;8.00;1.50;;;;;;;22.76;75.96;100321.59;1774203;78;21306;-78
2021/06/18 06:34:27;;;;;;;5.22;1.50;;;;;;;22.74;74.34;100321.56;1774975;80;21214;-78
2021/06/18 06:37:33;;;;;;;4.72;1.47;;;;;;;22.77;73.57;100329.40;1773674;78;21369;-78
2021/06/18 06:40:40;;;;;;;5.60;1.50;;;;;;;22.89;73.13;100327.39;1773990;78;21334;-78
2021/06/18 06:43:45;;;;;;;4.65;1.52;;;;;;;22.79;72.93;100327.22;1774898;78;21723;-78
2021/06/18 06:46:51;;;;;;;3.65;1.40;;;;;;;22.76;75.03;100326.33;1772678;80;21168;-78
2021/06/18 06:49:56;;;;;;;4.37;1.52;;;;;;;23.02;74.04;100336.78;1774873;80;21822;-78
2021/06/18 06:53:02;;;;;;;3.17;1.47;;;;;;;23.29;73.06;100327.63;1778205;80;21277;-78
2021/06/18 06:56:07;;;;;;;3.25;1.20;;;;;;;23.44;70.06;100328.68;1776604;80;21806;-78
2021/06/18 06:59:12;;;;;;;3.08;1.32;;;;;;;23.40;70.61;100321.93;1776651;80;21329;-78
2021/06/18 07:02:18;;;;;;;2.77;1.10;;;;;;;23.24;69.68;100334.55;1771706;80;21258;-78
2021/06/18 07:05:24;;;;;;;2.65;1.10;;;;;;;23.13;70.77;100333.02;1775538;78;21278;-78
2021/06/18 07:08:30;;;;;;;3.22;1.30;;;;;;;23.07;70.53;100340.20;1775139;80;21263;-78
2021/06/18 07:11:35;;;;;;;4.80;2.05;;;;;;;22.99;71.32;100346.21;1772550;80;21175;-77
2021/06/18 07:14:41;;;;;;;2.42;1.32;;;;;;;22.98;72.16;100346.77;1787394;79;21283;-78
2021/06/18 07:17:48;;;;;;;5.17;1.15;;;;;;;22.96;71.77;100342.01;1785219;79;21196;-77
2021/06/18 07:20:53;;;;;;;2.70;1.30;;;;;;;22.90;71.58;100345.80;1787881;79;21856;-77
2021/06/18 07:23:58;;;;;;;5.05;1.30;;;;;;;22.88;72.00;100352.17;1783910;79;21317;-77
2021/06/18 07:27:04;;;;;;;4.28;1.50;;;;;;;22.79;71.48;100349.52;1782023;79;21169;-77
2021/06/18 07:30:09;;;;;;;4.22;1.10;;;;;;;22.65;72.15;100345.69;1784936;79;21335;-78
2021/06/18 07:33:15;;;;;;;2.08;1.10;;;;;;;22.56;72.04;100344.43;1779169;79;21339;-79
2021/06/18 07:36:21;;;;;;;2.22;1.10;;;;;;;22.58;72.96;100342.22;1784709;79;21839;-78
2021/06/18 07:39:26;;;;;;;2.33;1.25;;;;;;;22.84;73.29;100350.98;1782583;79;21315;-79
2021/06/18 07:42:31;;;;;;;4.65;1.40;;;;;;;23.07;71.85;100346.62;1780307;79;21287;-79
2021/06/18 07:45:36;;;;;;;3.35;1.50;;;;;;;23.28;71.61;100339.91;1780682;79;21922;-78
2021/06/18 07:48:43;;;;;;;4.40;1.30;;;;;;;23.56;69.61;100336.06;1783696;79;21302;-78
2021/06/18 07:51:49;;;;;;;2.83;1.20;;;;;;;23.58;68.92;100344.48;1780227;79;21639;-78
2021/06/18 07:54:58;;;;;;;4.90;1.32;;;;;;;23.58;68.04;100336.66;1792304;79;21613;-78
2021/06/18 07:58:03;;;;;;;4.05;1.55;;;;;;;23.63;69.77;100340.34;1777105;78;21739;-78
2021/06/18 08:01:11;;;;;;;4.28;1.05;;;;;;;23.65;68.95;100329.78;1799631;79;21283;-78
2021/06/18 08:04:16;;;;;;;5.45;1.22;;;;;;;23.55;67.38;100339.41;1796343;79;21278;-78
2021/06/18 08:07:23;;;;;;;2.90;0.90;;;;;;;23.51;68.72;100340.19;1758748;80;21338;-77
2021/06/18 08:10:30;;;;;;;1.67;0.85;;;;;;;23.59;68.90;100338.34;1783479;79;21204;-78
2021/06/18 08:13:36;;;;;;;2.72;1.40;;;;;;;23.59;68.57;100328.02;1791822;79;21184;-77
2021/06/18 08:16:43;;;;;;;4.75;1.37;;;;;;;23.53;67.79;100329.63;1760230;80;21174;-77
2021/06/18 08:19:48;;;;;;;2.00;1.10;;;;;;;23.44;67.59;100328.68;1783435;79;21386;-77
2021/06/18 08:22:55;;;;;;;2.17;1.15;;;;;;;23.43;67.21;100324.73;1789241;79;21716;-78
2021/06/18 08:26:01;;;;;;;1.72;1.00;;;;;;;23.53;67.51;100324.04;1810583;79;21290;-78
2021/06/18 08:29:06;;;;;;;2.90;1.10;;;;;;;23.67;66.81;100323.40;1810191;79;21814;-78
2021/06/18 08:32:11;;;;;;;4.55;1.27;;;;;;;23.75;67.06;100315.08;1758776;80;21284;-78
2021/06/18 08:35:18;;;;;;;2.60;1.27;;;;;;;24.01;69.21;100311.16;1763481;80;21283;-78
2021/06/18 08:38:23;;;;;;;3.60;1.25;;;;;;;24.19;65.18;100315.80;1793977;79;21870;-79
2021/06/18 08:41:31;;;;;;;2.00;1.00;;;;;;;24.26;66.34;100308.58;1751522;80;21338;-77
2021/06/18 08:44:36;;;;;;;2.60;1.17;;;;;;;24.34;64.93;100308.09;1753124;79;21220;-78
2021/06/18 08:47:41;;;;;;;2.55;1.15;;;;;;;24.37;65.64;100304.81;1793592;78;21286;-77
2021/06/18 08:50:47;;;;;;;1.52;1.00;;;;;;;24.35;65.79;100298.59;1781647;78;21317;-77
2021/06/18 08:53:53;;;;;;;4.45;1.02;;;;;;;24.39;64.17;100294.19;1794504;78;21897;-77
2021/06/18 08:56:58;;;;;;;2.27;1.07;;;;;;;24.48;64.43;100290.34;1799581;78;21188;-77
2021/06/18 09:00:04;;;;;;;4.67;1.25;;;;;;;24.46;64.07;100297.58;1794545;77;61550;-84
2021/06/18 09:03:45;;;;;;;2.98;1.10;;;;;;;24.36;64.53;100298.91;1689157;83;21286;-84
2021/06/18 09:06:50;;;;;;;2.77;1.17;;;;;;;24.29;64.54;100299.67;1679025;84;21905;-84
2021/06/18 09:09:56;;;;;;;2.12;1.05;;;;;;;24.33;65.37;100305.58;1646962;86;21314;-83
2021/06/18 09:13:34;;;;;;;2.40;1.25;;;;;;;24.41;63.46;100301.73;1673385;84;21334;-84
2021/06/18 09:16:39;;;;;;;1.47;1.00;;;;;;;24.42;63.37;100310.99;1671316;84;21356;-84
2021/06/18 09:19:54;;;;;;;4.67;1.00;;;;;;;24.35;63.41;100298.59;1650374;84;21408;-84
2021/06/18 09:23:00;;;;;;;3.15;1.35;;;;;;;24.44;65.22;100299.81;1642291;85;21317;-84
2021/06/18 09:26:28;;;;;;;1.47;0.93;;;;;;;24.54;65.95;100301.00;1645028;86;21299;-84
2021/06/18 09:29:33;;;;;;;1.72;1.05;;;;;;;24.50;63.89;100294.26;1666991;84;21953;-82
2021/06/18 09:32:39;;;;;;;5.10;1.12;;;;;;;24.53;62.33;100302.13;1643366;86;21294;-82
2021/06/18 09:35:44;;;;;;;2.17;1.10;;;;;;;24.56;63.12;100303.83;1647025;84;21340;-81
2021/06/18 09:38:47;;;;;;;1.65;1.00;;;;;;;24.43;63.83;100302.33;1643925;86;21294;-82
2021/06/18 09:41:54;;;;;;;3.02;1.20;;;;;;;24.28;64.44;100299.92;1615862;86;21910;-82
2021/06/18 09:44:40;;;;;;;2.57;1.30;;;;;;;24.33;65.46;100300.83;1624161;86;21283;-82
2021/06/18 09:47:34;;;;;;;1.45;0.90;;;;;;;24.51;62.85;100302.37;1674140;84;21658;-85
2021/06/18 09:50:39;;;;;;;4.08;1.32;;;;;;;24.62;62.82;100292.95;1675360;84;21984;-85
2021/06/18 09:53:45;;;;;;;2.55;1.00;;;;;;;24.69;63.83;100295.50;1646442;86;21766;-85
2021/06/18 09:56:50;;;;;;;6.37;1.12;;;;;;;24.81;64.72;100300.91;1670521;84;21274;-84
2021/06/18 10:00:07;;;;;;;1.37;0.70;;;;;;;24.94;63.14;100299.86;1674942;84;21459;-84
2021/06/18 10:03:17;;;;;;;1.80;1.00;;;;;;;25.04;61.57;100296.27;1674783;84;21191;-85
2021/06/18 10:06:22;;;;;;;1.92;0.72;;;;;;;25.18;61.40;100297.49;1656931;84;21860;-82
2021/06/18 10:09:28;;;;;;;2.75;1.02;;;;;;;25.28;60.53;100298.65;1670741;84;21263;-84
2021/06/18 10:12:35;;;;;;;2.00;0.72;;;;;;;25.23;61.81;100302.27;1673479;84;22236;-85
2021/06/18 10:15:41;;;;;;;1.52;0.82;;;;;;;25.26;61.07;100298.06;1674725;84;21202;-85
2021/06/18 10:18:47;;;;;;;8.43;0.98;;;;;;;25.33;61.94;100299.50;1680195;83;21754;-85
2021/06/18 10:22:11;;;;;;;1.27;0.82;;;;;;;25.44;61.11;100301.77;1680492;83;21880;-82
2021/06/18 10:25:17;;;;;;;3.10;1.00;;;;;;;25.51;60.52;100300.97;1699978;84;21315;-82
2021/06/18 10:28:29;;;;;;;1.35;0.90;;;;;;;25.43;62.33;100310.73;1704911;82;21263;-85
2021/06/18 10:31:43;;;;;;;2.37;1.00;;;;;;;25.35;58.87;100306.22;1702265;83;21192;-82
2021/06/18 10:34:49;;;;;;;3.45;1.57;;;;;;;25.41;61.69;100306.55;1704627;83;21286;-82
2021/06/18 10:37:57;;;;;;;2.92;1.20;;;;;;;25.44;64.47;100314.38;1707660;83;21320;-82
2021/06/18 10:41:03;;;;;;;2.67;1.20;;;;;;;25.32;65.20;100322.19;1671821;83;21317;-82
2021/06/18 10:44:07;;;;;;;2.72;1.20;;;;;;;25.24;64.76;100319.34;1680599;83;21278;-85
2021/06/18 10:47:14;;;;;;;11.48;1.60;;;;;;;25.26;65.04;100317.66;1701249;83;21322;-84
2021/06/18 10:50:19;;;;;;;1.60;0.93;;;;;;;25.31;66.09;100317.67;1705368;83;21322;-85
2021/06/18 10:53:27;;;;;;;3.83;1.30;;;;;;;25.31;64.72;100321.87;1703722;83;21303;-84
2021/06/18 10:56:56;;;;;;;1.70;0.90;;;;;;;25.28;65.36;100322.44;1703039;82;21172;-84
2021/06/18 11:00:17;;;;;;;2.65;1.20;;;;;;;25.30;63.61;100322.44;1702865;83;21876;-84
2021/06/18 11:03:21;;;;;;;1.98;1.30;;;;;;;25.19;66.22;100321.55;1701706;83;21908;-85
2021/06/18 11:06:51;;;;;;;3.22;1.42;;;;;;;25.08;67.73;100315.64;1701894;83;21279;-84
2021/06/18 11:10:00;;;;;;;3.52;2.30;;;;;;;25.15;68.57;100320.41;1697827;83;21194;-81
2021/06/18 11:13:17;;;;;;;4.15;2.40;;;;;;;25.07;67.36;100318.66;1704960;83;21204;-81
2021/06/18 11:16:25;;;;;;;4.55;2.92;;;;;;;24.84;67.80;100312.93;1700667;83;21192;-81
2021/06/18 11:19:34;;;;;;;5.80;3.50;;;;;;;24.77;69.26;100330.52;1702813;83;21298;-81
2021/06/18 11:22:55;;;;;;;6.53;3.27;;;;;;;24.89;68.96;100325.55;1705135;83;21260;-84
2021/06/18 11:26:04;;;;;;;5.30;3.40;;;;;;;25.06;67.84;100327.61;1696326;84;21291;-83
2021/06/18 11:29:12;;;;;;;4.90;3.55;;;;;;;25.04;67.46;100331.81;1720029;82;21370;-84
2021/06/18 11:32:49;;;;;;;8.10;4.90;;;;;;;24.88;68.70;100327.50;1661876;83;21168;-83
2021/06/18 11:35:56;;;;;;;10.48;6.90;;;;;;;24.70;68.87;100333.01;1675813;84;21741;-81
2021/06/18 11:39:07;;;;;;;10.28;7.60;;;;;;;24.51;70.11;100323.89;1701552;83;21184;-81
2021/06/18 11:42:13;;;;;;;13.15;8.23;;;;;;;24.40;70.77;100341.15;1700929;83;21295;-81
2021/06/18 11:45:19;;;;;;;11.28;8.18;;;;;;;24.28;71.88;100334.85;1697935;83;21740;-81
2021/06/18 11:48:26;;;;;;;10.90;8.18;;;;;;;24.20;71.45;100336.20;1696042;84;21306;-82
2021/06/18 11:51:34;;;;;;;11.33;8.00;;;;;;;24.19;72.06;100331.73;1695726;84;21172;-81
2021/06/18 11:54:41;;;;;;;12.80;9.43;;;;;;;24.29;72.76;100328.18;1695586;84;21318;-82
2021/06/18 11:57:50;;;;;;;11.22;9.70;;;;;;;24.31;72.82;100334.33;1699183;83;21282;-82
2021/06/18 12:00:55;;;;;;;11.57;9.08;;;;;;;24.17;72.84;100334.77;1676472;84;21314;-82
2021/06/18 12:04:04;;;;;;;9.03;7.85;;;;;;;24.05;73.58;100334.11;1673509;83;21750;-82
2021/06/18 12:07:09;;;;;;;9.55;7.20;;;;;;;23.98;73.42;100330.68;1690486;83;21275;-82
2021/06/18 12:10:15;;;;;;;8.35;6.50;;;;;;;24.09;72.05;100325.50;1690409;83;21310;-82
2021/06/18 12:13:22;;;;;;;10.45;7.95;;;;;;;24.31;70.84;100323.16;1691589;83;21165;-82
2021/06/18 12:16:27;;;;;;;11.10;8.63;;;;;;;24.36;70.01;100324.06;1688673;83;21315;-82
2021/06/18 12:19:46;;;;;;;12.47;10.40;;;;;;;24.32;71.08;100340.20;1695598;83;21315;-82
2021/06/18 12:22:52;;;;;;;10.70;9.60;;;;;;;24.18;72.67;100336.48;1673607;84;21216;-82
2021/06/18 12:25:57;;;;;;;12.18;9.20;;;;;;;23.95;73.27;100336.81;1672687;85;21831;-82
2021/06/18 12:29:02;;;;;;;13.93;8.85;;;;;;;23.85;74.00;100343.11;1673693;83;21302;-82
2021/06/18 12:32:08;;;;;;;11.05;8.75;;;;;;;23.84;73.43;100339.20;1694334;83;21205;-82
2021/06/18 12:35:21;;;;;;;11.22;9.13;;;;;;;23.87;73.97;100339.52;1689450;83;21279;-82
2021/06/18 12:38:25;;;;;;;11.78;9.75;;;;;;;23.95;73.62;100315.86;1698306;83;21896;-82
2021/06/18 12:41:35;;;;;;;10.15;8.93;;;;;;;24.07;73.80;100312.33;1692058;83;21279;-82
2021/06/18 12:44:41;;;;;;;8.48;6.97;;;;;;;24.18;73.53;100314.13;1689109;83;21860;-82
2021/06/18 12:47:55;;;;;;;10.48;6.00;;;;;;;24.04;74.67;100335.20;1688299;83;21149;-83
2021/06/18 12:51:05;;;;;;;7.90;5.17;;;;;;;23.73;75.14;100334.06;1673380;85;21286;-82
2021/06/18 12:54:14;;;;;;;8.53;5.62;;;;;;;23.46;77.06;100346.00;1703861;83;21235;-83
2021/06/18 12:57:35;;;;;;;7.00;5.37;;;;;;;23.26;77.34;100342.13;1688405;85;21180;-82
2021/06/18 13:01:05;;;;;;;5.67;4.58;;;;;;;22.98;76.12;100359.31;1704015;83;21153;-82
2021/06/18 13:04:09;;;;;;;10.18;4.30;;;;;;;22.74;77.71;100355.02;1697992;82;21764;-82
2021/06/18 13:07:15;;;;;;;5.70;4.42;;;;;;;22.44;78.12;100364.56;1700562;83;21180;-82
2021/06/18 13:10:20;;;;;;;5.87;4.47;;;;;;;22.31;79.94;100352.38;1697125;84;21318;-83
2021/06/18 13:13:36;;;;;;;7.67;4.40;;;;;;;22.27;81.34;100355.37;1691108;83;21753;-82
2021/06/18 13:16:41;;;;;;;9.08;4.35;;;;;;;22.35;82.02;100358.59;1717284;83;21180;-80
2021/06/18 13:19:57;;;;;;;8.15;3.50;;;;;;;22.46;80.87;100355.42;1705078;83;21336;-81
2021/06/18 13:23:03;;;;;;;4.15;2.85;;;;;;;22.58;79.98;100365.91;1706868;83;21341;-81
2021/06/18 13:26:18;;;;;;;4.85;3.12;;;;;;;22.58;77.12;100365.91;1695556;84;21228;-81
2021/06/18 13:29:32;;;;;;;3.95;3.15;;;;;;;22.57;76.98;100373.98;1697698;84;21740;-81
2021/06/18 13:32:55;;;;;;;5.87;3.00;;;;;;;22.51;77.71;100377.80;1694653;84;21845;-80
2021/06/18 13:36:03;;;;;;;4.03;2.58;;;;;;;22.46;78.06;100374.93;1678218;84;21283;-82
2021/06/18 13:39:31;;;;;;;2.60;2.40;;;;;;;22.47;78.61;100377.16;1697718;84;21228;-82
2021/06/18 13:42:36;;;;;;;7.10;2.90;;;;;;;22.48;78.89;100386.66;1679655;83;21298;-83
2021/06/18 13:45:40;;;;;;;4.10;3.17;;;;;;;22.40;78.79;100375.40;1708734;83;21319;-83
2021/06/18 13:48:45;;;;;;;7.47;2.87;;;;;;;22.26;79.93;100369.86;1719855;83;21785;-82
2021/06/18 13:51:58;;;;;;;3.60;2.92;;;;;;;22.16;78.96;100371.92;1726015;82;21176;-82
2021/06/18 13:55:03;;;;;;;4.35;2.50;;;;;;;22.09;79.35;100367.56;1723976;83;21327;-82
2021/06/18 13:58:08;;;;;;;4.25;2.75;;;;;;;22.04;79.17;100354.94;1724159;83;21529;-82
2021/06/18 14:01:13;;;;;;;5.80;2.92;;;;;;;22.00;80.07;100357.92;1724021;83;21161;-82
2021/06/18 14:04:19;;;;;;;3.22;2.58;;;;;;;22.02;80.86;100364.07;1724196;83;21350;-82
2021/06/18 14:07:24;;;;;;;5.58;3.08;;;;;;;22.08;80.48;100365.87;1739212;81;21303;-82
2021/06/18 14:10:30;;;;;;;2.83;2.52;;;;;;;22.09;81.29;100365.61;1667191;86;21719;-83
2021/06/18 14:13:35;;;;;;;4.85;2.98;;;;;;;22.11;81.06;100364.87;1717736;83;21582;-83
2021/06/18 14:16:49;;;;;;;4.87;2.92;;;;;;;22.15;79.85;100359.06;1707854;83;21792;-84
2021/06/18 14:19:55;;;;;;;3.45;2.42;;;;;;;22.22;80.10;100358.08;1717760;83;21793;-84
2021/06/18 14:23:01;;;;;;;3.40;2.20;;;;;;;22.25;78.94;100361.18;1717736;83;21283;-83
2021/06/18 14:26:06;;;;;;;5.20;2.70;;;;;;;22.28;78.92;100370.44;1717758;83;21864;-84
2021/06/18 14:29:11;;;;;;;8.13;2.60;;;;;;;22.29;79.77;100369.89;1739884;81;21326;-83